South Starksboro, Vermont
Current Conditions -  °F | °C
As of 5:35 PM on Friday 19 Dec 2014 (Local Time) from K6B0 Reporting Station
Overcast Overcast  
Wind Chill: 18°   Ceiling: 2200
Heat Index: 26°   Visibility: 10mi
Dew Point: 19°   Wind: 7mph
Humidity: 74%   Direction: 360°N
Pressure: 30.13"   Gusts: NA
Location:  44.2287°N, 72.9928°W
Report Text: K6B0 192235Z AUTO 36006KT 10SM OVC022 M03/M07 A3013 RMK AO2 T10351075
Loading
Personal Weather Stations






























Interactive Weather Map New forecast layout! Learn more

10-Day Weather Forecast

Advertisements
Track Severe Weather on mobile